Bow Island Climate, Alberta

Past 24 Hour Conditions

This table is a summary of hourly weather conditions for the past 24 hours. This summary includes the following parameters: temperature, humidity, dew point, wind speed and direction, air pressure, visibility and/or wind chill and humidex.
Date / Time
(MDT)
Conditions Temp (°F) Humidity (%) Dew Point (°F) Wind (mph) Pressure (inches) Vis (mi) Wind Chill
19 April 2014
20:00 N/A 52 38 28 WSW 4 N/A N/A *
19:00 N/A 58 23 20 WSW 9 N/A N/A *
18:00 N/A 60 23 22 W 6 N/A N/A *
17:00 N/A 62   18 17 WSW 5 N/A N/A *
16:00 N/A 60 22 22 SW 5 N/A N/A *
15:00 N/A 57 35 30 SSW 7 N/A N/A *
14:00 N/A 56 34 28 WSW 8 N/A N/A *
13:00 N/A 53 36 27 W 11 N/A N/A *
12:00 N/A 51 48 32 W 10 N/A N/A *
11:00 N/A 48 57 33 WNW 5 N/A N/A *
10:00 N/A 43 74 35 S 5 N/A N/A *
9:00 N/A 38 86 34 SSW 4 N/A N/A *
8:00 N/A 34 88 31 S 6 N/A N/A *
7:00 N/A 30   92 28 SSW 6 N/A N/A 23
6:00 N/A 30   92 28 SW 3 N/A N/A 27
5:00 N/A 32 90 30 W 5 N/A N/A *
4:00 N/A 34 89 31 NW 6 N/A N/A *
3:00 N/A 34 91 32 WNW 10 N/A N/A *
2:00 N/A 35 90 32 NW 14 N/A N/A *
1:00 N/A 34 92 32 NW 12 N/A N/A *
00:00 N/A 35 90 32 NW 12 gust 22 N/A N/A *
18 April 2014
23:00 N/A 35 89 32 NW 16 gust 26 N/A N/A *
22:00 N/A 35 93 34 WNW 23 N/A N/A *
21:00 N/A 35 93 34 NW 20 gust 29 N/A N/A *
20:00 N/A 36 91 34 WNW 21 N/A N/A *
N/A
Not available
 ↑ 
Highest temperature
 ↓ 
Lowest temperature
*
Value not significant.

If you require additional historical weather information, please visit Climate Data Online.